createdAt,value
2019-02-17T00:00:47.321Z,17.70
2019-02-17T00:03:16.890Z,18.63
2019-02-17T00:05:46.672Z,18.30
2019-02-17T00:08:16.388Z,17.20
2019-02-17T00:10:46.178Z,18.43
2019-02-17T00:13:15.973Z,17.57
2019-02-17T00:15:46.017Z,17.33
2019-02-17T00:18:15.440Z,18.80
2019-02-17T00:20:44.975Z,17.30
2019-02-17T00:23:14.263Z,17.07
2019-02-17T00:25:43.499Z,17.30
2019-02-17T00:28:13.338Z,17.57
2019-02-17T00:30:42.782Z,16.27
2019-02-17T00:33:11.916Z,15.03
2019-02-17T00:35:41.411Z,16.97
2019-02-17T00:38:11.052Z,15.97
2019-02-17T00:40:40.654Z,17.40
2019-02-17T00:43:10.065Z,15.30
2019-02-17T00:45:39.834Z,16.17
2019-02-17T00:48:09.020Z,15.60
2019-02-17T00:50:38.166Z,15.57
2019-02-17T00:53:07.633Z,15.77
2019-02-17T00:55:37.900Z,15.17
2019-02-17T00:58:07.120Z,15.77
2019-02-17T01:00:37.077Z,15.23
2019-02-17T01:03:06.277Z,15.77
2019-02-17T01:05:35.547Z,14.87
2019-02-17T01:08:05.300Z,14.03
2019-02-17T01:10:34.539Z,15.13
2019-02-17T01:13:04.388Z,14.47
2019-02-17T01:15:33.871Z,14.13
2019-02-17T01:18:03.274Z,14.50
2019-02-17T01:20:32.721Z,15.43
2019-02-17T01:23:02.609Z,14.07
2019-02-17T01:25:32.424Z,14.70
2019-02-17T01:28:02.241Z,13.70
2019-02-17T01:30:31.693Z,14.00
2019-02-17T01:33:01.428Z,14.03
2019-02-17T01:35:31.201Z,14.10
2019-02-17T01:38:00.711Z,14.77
2019-02-17T01:40:30.774Z,14.73
2019-02-17T01:43:00.261Z,14.00
2019-02-17T01:45:30.046Z,13.60
2019-02-17T01:47:59.505Z,13.80
2019-02-17T01:50:29.749Z,14.27
2019-02-17T01:52:59.698Z,14.73
2019-02-17T01:55:29.207Z,15.80
2019-02-17T01:57:58.393Z,14.80
2019-02-17T02:00:27.843Z,15.70
2019-02-17T02:02:57.906Z,15.73
2019-02-17T02:05:28.305Z,15.47
2019-02-17T02:07:57.502Z,15.30
2019-02-17T02:10:26.892Z,16.17
2019-02-17T02:12:56.392Z,15.53
2019-02-17T02:15:25.815Z,16.67
2019-02-17T02:17:54.942Z,15.77
2019-02-17T02:20:24.082Z,15.23
2019-02-17T02:22:53.208Z,15.83
2019-02-17T02:25:22.589Z,15.17
2019-02-17T02:27:52.101Z,16.67
2019-02-17T02:30:21.932Z,15.33
2019-02-17T02:32:51.488Z,15.90
2019-02-17T02:35:21.065Z,16.17
2019-02-17T02:37:51.263Z,16.40
2019-02-17T02:40:20.678Z,15.70
2019-02-17T02:42:49.804Z,16.73
2019-02-17T02:45:19.207Z,16.87
2019-02-17T02:47:49.379Z,16.43
2019-02-17T02:50:18.877Z,16.67
2019-02-17T02:52:48.703Z,16.47
2019-02-17T02:55:18.476Z,15.97
2019-02-17T02:57:48.043Z,15.57
2019-02-17T03:00:17.650Z,16.10
2019-02-17T03:02:46.867Z,15.93
2019-02-17T03:05:16.731Z,15.13
2019-02-17T03:07:46.670Z,16.53
2019-02-17T03:10:16.402Z,16.40
2019-02-17T03:12:45.858Z,15.13
2019-02-17T03:15:15.710Z,16.30
2019-02-17T03:17:45.200Z,15.23
2019-02-17T03:20:14.851Z,16.40
2019-02-17T03:22:44.554Z,15.70
2019-02-17T03:25:14.341Z,15.37
2019-02-17T03:27:44.143Z,15.13
2019-02-17T03:30:14.190Z,17.03
2019-02-17T03:32:44.152Z,15.47
2019-02-17T03:35:13.660Z,16.80
2019-02-17T03:37:42.852Z,18.20
2019-02-17T03:40:12.501Z,18.87
2019-02-17T03:42:42.191Z,19.67
2019-02-17T03:45:12.048Z,20.63
2019-02-17T03:47:41.566Z,19.90
2019-02-17T03:50:11.115Z,18.50
2019-02-17T03:52:41.213Z,18.27
2019-02-17T03:55:10.985Z,18.30
2019-02-17T03:57:40.222Z,16.60
2019-02-17T04:00:16.886Z,15.17
2019-02-17T04:02:40.827Z,15.47
2019-02-17T04:05:10.120Z,15.60
2019-02-17T04:07:40.451Z,14.97
2019-02-17T04:10:09.867Z,15.77
2019-02-17T04:12:39.221Z,15.63
2019-02-17T04:15:08.729Z,15.77
2019-02-17T04:17:38.924Z,15.93
2019-02-17T04:20:08.531Z,16.40
2019-02-17T04:22:37.618Z,15.83
2019-02-17T04:25:07.857Z,16.90
2019-02-17T04:27:37.243Z,17.03
2019-02-17T04:30:07.171Z,15.20
2019-02-17T04:32:36.683Z,16.53
2019-02-17T04:35:06.356Z,16.17
2019-02-17T04:37:35.573Z,16.67
2019-02-17T04:40:05.254Z,15.30
2019-02-17T04:42:34.700Z,17.57
2019-02-17T04:45:04.353Z,16.90
2019-02-17T04:47:33.619Z,17.33
2019-02-17T04:50:02.843Z,17.93
2019-02-17T04:52:32.752Z,17.13
2019-02-17T04:55:02.414Z,16.03
2019-02-17T04:57:31.548Z,17.63
2019-02-17T05:00:01.088Z,18.03
2019-02-17T05:02:30.728Z,16.60
2019-02-17T05:04:59.999Z,16.93
2019-02-17T05:07:29.818Z,18.13
2019-02-17T05:10:00.353Z,18.73
2019-02-17T05:12:30.141Z,20.03
2019-02-17T05:15:00.341Z,21.00
2019-02-17T05:17:29.997Z,19.87
2019-02-17T05:20:05.269Z,19.97
2019-02-17T05:22:30.462Z,20.33
2019-02-17T05:25:00.366Z,21.20
2019-02-17T05:27:29.936Z,21.87
2019-02-17T05:30:19.146Z,20.33
2019-02-17T05:32:48.294Z,20.70
2019-02-17T05:35:18.079Z,20.73
2019-02-17T05:37:47.210Z,21.20
2019-02-17T05:40:16.351Z,22.47
2019-02-17T05:42:45.469Z,20.47
2019-02-17T05:45:14.643Z,21.90
2019-02-17T05:47:43.785Z,21.70
2019-02-17T05:50:13.262Z,21.73
2019-02-17T05:52:42.427Z,21.07
2019-02-17T05:55:12.019Z,21.90
2019-02-17T05:57:41.188Z,22.53
2019-02-17T06:00:11.748Z,21.27
2019-02-17T06:02:41.676Z,22.37
2019-02-17T06:05:11.598Z,22.93
2019-02-17T06:07:41.597Z,23.33
2019-02-17T06:10:11.743Z,22.77
2019-02-17T06:12:41.395Z,24.50
2019-02-17T06:15:10.843Z,24.97
2019-02-17T06:17:40.031Z,23.67
2019-02-17T06:20:10.380Z,25.17
2019-02-17T06:22:39.412Z,24.57
2019-02-17T06:25:08.822Z,24.87
2019-02-17T06:27:37.949Z,25.47
2019-02-17T06:30:07.500Z,25.87
2019-02-17T06:32:36.776Z,24.83
2019-02-17T06:35:06.581Z,27.07
2019-02-17T06:37:36.027Z,28.27
2019-02-17T06:40:05.733Z,27.13
2019-02-17T06:42:35.859Z,27.50
2019-02-17T06:45:05.424Z,29.90
2019-02-17T06:47:35.970Z,28.27
2019-02-17T06:50:05.972Z,32.10
2019-02-17T06:52:35.077Z,31.33
2019-02-17T06:55:26.307Z,38.03
2019-02-17T06:57:55.946Z,38.30
2019-02-17T07:00:44.050Z,34.93
2019-02-17T07:03:14.432Z,28.00
2019-02-17T07:06:09.185Z,29.10
2019-02-17T07:08:38.689Z,28.40
2019-02-17T07:11:08.218Z,35.47
2019-02-17T07:13:38.481Z,36.97
2019-02-17T07:16:08.446Z,47.90
2019-02-17T07:18:38.015Z,47.80
2019-02-17T07:21:07.556Z,54.73
2019-02-17T07:23:37.071Z,61.20
2019-02-17T07:26:06.985Z,82.20
2019-02-17T07:28:36.697Z,68.57
2019-02-17T07:31:06.176Z,52.37
2019-02-17T07:33:36.024Z,46.33
2019-02-17T07:36:06.162Z,75.77
2019-02-17T07:38:35.778Z,73.63
2019-02-17T07:41:05.274Z,46.40
2019-02-17T07:43:35.178Z,36.40
2019-02-17T07:46:05.104Z,35.17
2019-02-17T07:48:34.350Z,39.87
2019-02-17T07:51:03.939Z,32.60
2019-02-17T07:53:33.145Z,34.43
2019-02-17T07:56:03.087Z,32.00
2019-02-17T07:58:33.067Z,27.00
2019-02-17T08:01:02.232Z,25.20
2019-02-17T08:03:32.138Z,25.20
2019-02-17T08:06:01.754Z,25.93
2019-02-17T08:08:30.853Z,25.00
2019-02-17T08:11:04.003Z,24.87
2019-02-17T08:13:31.192Z,24.03
2019-02-17T08:16:01.065Z,25.27
2019-02-17T08:18:31.164Z,26.23
2019-02-17T08:21:00.298Z,27.00
2019-02-17T08:23:30.083Z,24.43
2019-02-17T08:25:59.285Z,25.63
2019-02-17T08:28:29.835Z,25.07
2019-02-17T08:30:59.455Z,24.90
2019-02-17T08:33:28.966Z,26.10
2019-02-17T08:35:58.126Z,26.57
2019-02-17T08:38:27.866Z,26.13
2019-02-17T08:40:57.979Z,24.67
2019-02-17T08:43:27.569Z,25.70
2019-02-17T08:45:56.766Z,25.43
2019-02-17T08:48:26.618Z,22.43
2019-02-17T08:50:57.132Z,25.73
2019-02-17T08:53:27.146Z,28.23
2019-02-17T08:55:56.756Z,24.90
2019-02-17T08:58:26.281Z,27.33
2019-02-17T09:00:55.389Z,28.50
2019-02-17T09:03:24.618Z,28.87
2019-02-17T09:05:53.794Z,28.30
2019-02-17T09:08:24.103Z,27.83
2019-02-17T09:10:54.027Z,28.10
2019-02-17T09:13:24.633Z,24.17
2019-02-17T09:15:54.922Z,26.97
2019-02-17T09:18:24.123Z,23.53
2019-02-17T09:20:53.612Z,25.77
2019-02-17T09:23:22.896Z,25.97
2019-02-17T09:25:52.274Z,25.33
2019-02-17T09:28:21.369Z,24.73
2019-02-17T09:30:50.473Z,25.63
2019-02-17T09:33:20.113Z,24.00
2019-02-17T09:35:49.467Z,26.07
2019-02-17T09:38:19.627Z,21.13
2019-02-17T09:40:49.182Z,21.13
2019-02-17T09:43:19.503Z,19.30
2019-02-17T09:45:49.646Z,19.57
2019-02-17T09:48:20.161Z,20.30
2019-02-17T09:50:50.822Z,20.17
2019-02-17T09:53:20.130Z,18.80
2019-02-17T09:55:49.674Z,18.53
2019-02-17T09:58:19.087Z,18.63
2019-02-17T10:00:52.279Z,16.33
2019-02-17T10:03:23.825Z,17.43
2019-02-17T10:05:54.229Z,16.53
2019-02-17T10:08:23.654Z,17.03
2019-02-17T10:10:53.314Z,18.03
2019-02-17T10:13:22.900Z,17.00
2019-02-17T10:15:52.636Z,18.40
2019-02-17T10:18:22.971Z,15.50
2019-02-17T10:20:52.862Z,15.13
2019-02-17T10:23:22.480Z,14.40
2019-02-17T10:25:52.671Z,15.07
2019-02-17T10:28:22.505Z,15.73
2019-02-17T10:30:52.361Z,15.13
2019-02-17T10:33:21.915Z,14.83
2019-02-17T10:35:51.845Z,14.03
2019-02-17T10:38:21.026Z,16.00
2019-02-17T10:40:50.580Z,15.57
2019-02-17T10:43:19.706Z,19.03
2019-02-17T10:45:49.034Z,18.37
2019-02-17T10:48:18.802Z,17.37
2019-02-17T10:50:48.389Z,16.63
2019-02-17T10:53:17.631Z,17.57
2019-02-17T10:55:46.905Z,17.60
2019-02-17T10:58:16.379Z,17.93
2019-02-17T11:00:45.971Z,18.30
2019-02-17T11:03:16.338Z,16.90
2019-02-17T11:05:45.810Z,19.33
2019-02-17T11:08:15.687Z,18.23
2019-02-17T11:10:45.221Z,18.33
2019-02-17T11:13:14.832Z,18.13
2019-02-17T11:15:44.267Z,17.23
2019-02-17T11:18:13.836Z,15.87
2019-02-17T11:20:43.057Z,17.13
2019-02-17T11:23:13.168Z,16.93
2019-02-17T11:25:42.444Z,15.93
2019-02-17T11:28:12.157Z,17.80
2019-02-17T11:30:42.036Z,16.40
2019-02-17T11:33:11.682Z,16.93
2019-02-17T11:35:41.846Z,16.77
2019-02-17T11:38:11.700Z,17.03
2019-02-17T11:40:42.324Z,16.33
2019-02-17T11:43:11.911Z,17.23
2019-02-17T11:45:42.172Z,18.33
2019-02-17T11:48:12.263Z,18.20
2019-02-17T11:50:41.539Z,19.23
2019-02-17T11:53:11.031Z,18.90
2019-02-17T11:55:40.393Z,16.23
2019-02-17T11:58:09.743Z,18.27
2019-02-17T12:00:39.549Z,18.43
2019-02-17T12:03:09.470Z,18.00
2019-02-17T12:05:39.016Z,17.30
2019-02-17T12:08:08.282Z,18.67
2019-02-17T12:10:37.898Z,19.20
2019-02-17T12:13:07.470Z,20.67
2019-02-17T12:15:37.261Z,25.33
2019-02-17T12:18:06.555Z,24.10
2019-02-17T12:20:55.470Z,24.20
2019-02-17T12:23:47.239Z,21.77
2019-02-17T12:26:38.736Z,19.43
2019-02-17T12:29:15.244Z,16.83
2019-02-17T12:31:45.954Z,16.67
2019-02-17T12:34:15.758Z,17.17
2019-02-17T12:36:45.939Z,16.63
2019-02-17T12:39:15.572Z,16.87
2019-02-17T12:41:46.000Z,16.40
2019-02-17T12:44:15.693Z,17.77
2019-02-17T12:46:44.912Z,18.43
2019-02-17T12:49:15.053Z,17.17
2019-02-17T12:51:45.139Z,17.20
2019-02-17T12:54:15.114Z,18.07
2019-02-17T12:56:44.337Z,18.73
2019-02-17T12:59:13.637Z,19.13
2019-02-17T13:01:45.382Z,18.90
2019-02-17T13:04:15.131Z,18.77
2019-02-17T13:06:44.669Z,19.90
2019-02-17T13:09:14.552Z,19.17
2019-02-17T13:11:43.732Z,19.20
2019-02-17T13:14:13.186Z,18.97
2019-02-17T13:16:43.062Z,20.70
2019-02-17T13:19:12.239Z,20.20
2019-02-17T13:21:41.522Z,19.50
2019-02-17T13:24:11.289Z,19.60
2019-02-17T13:26:40.702Z,19.50
2019-02-17T13:29:10.691Z,20.27
2019-02-17T13:31:40.542Z,19.50
2019-02-17T13:34:10.371Z,18.73
2019-02-17T13:36:39.928Z,18.50
2019-02-17T13:39:09.608Z,18.63
2019-02-17T13:41:39.033Z,19.33
2019-02-17T13:44:08.665Z,18.03
2019-02-17T13:46:38.304Z,17.70
2019-02-17T13:49:08.532Z,16.80
2019-02-17T13:51:38.151Z,18.13
2019-02-17T13:54:07.266Z,18.93
2019-02-17T13:56:37.168Z,18.30
2019-02-17T13:59:06.493Z,18.23
2019-02-17T14:01:36.081Z,17.40
2019-02-17T14:04:06.306Z,18.77
2019-02-17T14:06:35.455Z,17.93
2019-02-17T14:09:05.818Z,18.00
2019-02-17T14:11:35.099Z,17.73
2019-02-17T14:14:04.935Z,19.00
2019-02-17T14:16:34.818Z,18.30
2019-02-17T14:19:04.854Z,19.33
2019-02-17T14:21:34.460Z,18.97
2019-02-17T14:24:04.132Z,17.53
2019-02-17T14:26:33.624Z,18.27
2019-02-17T14:29:03.111Z,17.97
2019-02-17T14:31:33.047Z,18.90
2019-02-17T14:34:02.966Z,17.77
2019-02-17T14:36:32.611Z,19.07
2019-02-17T14:39:02.380Z,18.47
2019-02-17T14:41:31.550Z,18.87
2019-02-17T14:44:01.252Z,19.77
2019-02-17T14:46:30.784Z,20.10
2019-02-17T14:48:59.983Z,19.87
2019-02-17T14:51:29.394Z,20.13
2019-02-17T14:53:59.006Z,18.47
2019-02-17T14:56:29.458Z,20.80
2019-02-17T14:58:59.182Z,20.13
2019-02-17T15:01:29.126Z,19.97
2019-02-17T15:04:08.120Z,19.80
2019-02-17T15:06:30.224Z,21.67
2019-02-17T15:09:00.207Z,19.93
2019-02-17T15:11:29.726Z,23.33
2019-02-17T15:13:59.715Z,21.60
2019-02-17T15:16:34.074Z,21.17
2019-02-17T15:19:06.363Z,19.63
2019-02-17T15:21:36.001Z,20.90
2019-02-17T15:24:07.854Z,20.70
2019-02-17T15:26:37.375Z,20.57
2019-02-17T15:29:07.304Z,21.27
2019-02-17T15:31:37.120Z,21.77
2019-02-17T15:34:07.804Z,21.20
2019-02-17T15:36:37.068Z,22.80
2019-02-17T15:39:07.667Z,21.80
2019-02-17T15:41:37.647Z,21.47
2019-02-17T15:44:07.217Z,22.43
2019-02-17T15:46:36.556Z,22.53
2019-02-17T15:49:06.886Z,22.87
2019-02-17T15:51:36.627Z,22.40
2019-02-17T15:54:06.421Z,23.20
2019-02-17T15:56:36.186Z,23.70
2019-02-17T15:59:05.740Z,22.27
2019-02-17T16:01:34.884Z,22.77
2019-02-17T16:04:04.745Z,22.90
2019-02-17T16:06:34.306Z,24.73
2019-02-17T16:09:04.738Z,25.33
2019-02-17T16:11:35.105Z,25.57
2019-02-17T16:14:04.597Z,27.13
2019-02-17T16:16:34.987Z,29.97
2019-02-17T16:19:04.348Z,29.00
2019-02-17T16:21:34.025Z,28.63
2019-02-17T16:24:03.185Z,29.17
2019-02-17T16:26:35.131Z,29.33
2019-02-17T16:29:05.034Z,29.87
2019-02-17T16:31:34.830Z,31.97
2019-02-17T16:34:04.053Z,29.67
2019-02-17T16:36:33.730Z,30.33
2019-02-17T16:39:05.921Z,28.90
2019-02-17T16:41:35.154Z,29.33
2019-02-17T16:44:05.659Z,29.27
2019-02-17T16:46:35.933Z,29.27
2019-02-17T16:49:07.150Z,30.20
2019-02-17T16:51:36.719Z,30.87
2019-02-17T16:54:06.124Z,29.40
2019-02-17T16:56:36.014Z,30.47
2019-02-17T16:59:06.169Z,28.63
2019-02-17T17:01:35.780Z,31.57
2019-02-17T17:04:05.515Z,32.27
2019-02-17T17:06:35.196Z,33.00
2019-02-17T17:09:06.249Z,30.97
2019-02-17T17:11:35.764Z,32.50
2019-02-17T17:14:08.910Z,32.83
2019-02-17T17:16:37.359Z,32.83
2019-02-17T17:19:07.640Z,34.80
2019-02-17T17:21:37.130Z,36.60
2019-02-17T17:24:07.173Z,35.13
2019-02-17T17:26:36.711Z,36.90
2019-02-17T17:29:05.922Z,37.90
2019-02-17T17:31:35.527Z,37.23
2019-02-17T17:34:05.281Z,39.37
2019-02-17T17:36:35.669Z,41.20
2019-02-17T17:39:06.603Z,43.23
2019-02-17T17:41:36.489Z,42.93
2019-02-17T17:44:06.025Z,44.03
2019-02-17T17:46:35.739Z,47.30
2019-02-17T17:49:05.928Z,56.30
2019-02-17T17:51:35.858Z,57.77
2019-02-17T17:54:05.092Z,59.37
2019-02-17T17:56:34.643Z,62.10
2019-02-17T17:59:04.290Z,62.43
2019-02-17T18:01:34.222Z,61.90
2019-02-17T18:04:03.765Z,63.87
2019-02-17T18:06:33.062Z,63.50
2019-02-17T18:09:02.573Z,64.40
2019-02-17T18:11:32.210Z,63.63
2019-02-17T18:14:01.786Z,63.63
2019-02-17T18:16:31.483Z,65.30
2019-02-17T18:19:00.630Z,67.33
2019-02-17T18:21:30.164Z,67.43
2019-02-17T18:23:59.335Z,70.03
2019-02-17T18:26:28.704Z,69.07
2019-02-17T18:28:58.614Z,68.80
2019-02-17T18:31:27.858Z,66.10
2019-02-17T18:33:57.744Z,68.20
2019-02-17T18:36:27.677Z,71.30
2019-02-17T18:38:56.978Z,71.57
2019-02-17T18:41:26.465Z,73.97
2019-02-17T18:43:55.647Z,74.27
2019-02-17T18:46:26.462Z,78.10
2019-02-17T18:48:57.015Z,78.00
2019-02-17T18:51:26.603Z,78.90
2019-02-17T18:53:56.468Z,81.00
2019-02-17T18:56:26.873Z,87.40
2019-02-17T18:58:57.272Z,92.17
2019-02-17T19:01:27.476Z,88.50
2019-02-17T19:03:57.045Z,91.40
2019-02-17T19:06:26.581Z,89.77
2019-02-17T19:08:56.502Z,88.07
2019-02-17T19:11:26.136Z,88.50
2019-02-17T19:13:55.398Z,87.90
2019-02-17T19:16:24.634Z,97.47
2019-02-17T19:18:54.203Z,93.03
2019-02-17T19:21:23.725Z,92.13
2019-02-17T19:23:53.291Z,92.37
2019-02-17T19:26:22.859Z,91.67
2019-02-17T19:28:52.498Z,91.33
2019-02-17T19:31:21.638Z,92.13
2019-02-17T19:33:51.224Z,91.27
2019-02-17T19:36:20.783Z,92.53
2019-02-17T19:38:50.128Z,89.77
2019-02-17T19:41:20.629Z,87.80
2019-02-17T19:43:50.168Z,89.50
2019-02-17T19:46:19.872Z,88.87
2019-02-17T19:48:49.847Z,91.20
2019-02-17T19:51:19.091Z,94.50
2019-02-17T19:53:48.672Z,95.13
2019-02-17T19:56:17.903Z,95.97
2019-02-17T19:58:47.481Z,96.30
2019-02-17T20:01:17.193Z,100.03
2019-02-17T20:04:01.499Z,98.47
2019-02-17T20:06:31.134Z,101.17
2019-02-17T20:09:00.498Z,102.87
2019-02-17T20:11:29.762Z,107.43
2019-02-17T20:13:59.106Z,108.57
2019-02-17T20:16:29.065Z,109.43
2019-02-17T20:18:58.625Z,110.20
2019-02-17T20:21:28.701Z,107.60
2019-02-17T20:23:58.797Z,106.50
2019-02-17T20:26:28.859Z,104.77
2019-02-17T20:28:58.546Z,107.00
2019-02-17T20:31:28.733Z,106.37
2019-02-17T20:33:58.437Z,105.20
2019-02-17T20:36:28.393Z,103.63
2019-02-17T20:38:57.706Z,105.50
2019-02-17T20:41:28.134Z,104.60
2019-02-17T20:43:57.893Z,104.80
2019-02-17T20:46:27.274Z,109.30
2019-02-17T20:48:57.294Z,107.17
2019-02-17T20:51:27.319Z,107.97
2019-02-17T20:53:58.100Z,103.53
2019-02-17T20:56:27.939Z,107.00
2019-02-17T20:58:57.305Z,108.20
2019-02-17T21:01:27.200Z,104.93
2019-02-17T21:03:57.019Z,107.10
2019-02-17T21:06:26.332Z,120.23
2019-02-17T21:08:55.951Z,126.30
2019-02-17T21:11:25.825Z,125.83
2019-02-17T21:13:55.154Z,126.63
2019-02-17T21:16:24.866Z,127.13
2019-02-17T21:18:54.476Z,127.00
2019-02-17T21:21:25.255Z,120.43
2019-02-17T21:23:54.887Z,121.43
2019-02-17T21:26:26.491Z,119.97
2019-02-17T21:28:56.241Z,126.30
2019-02-17T21:31:25.617Z,113.40
2019-02-17T21:33:55.650Z,103.83
2019-02-17T21:36:24.981Z,98.37
2019-02-17T21:38:54.261Z,94.60
2019-02-17T21:41:23.934Z,90.70
2019-02-17T21:43:53.270Z,89.57
2019-02-17T21:46:22.611Z,84.97
2019-02-17T21:48:52.452Z,88.47
2019-02-17T21:51:22.114Z,84.97
2019-02-17T21:53:51.751Z,85.43
2019-02-17T21:56:21.345Z,82.83
2019-02-17T21:58:50.925Z,82.67
2019-02-17T22:01:20.571Z,81.67
2019-02-17T22:03:50.487Z,80.90
2019-02-17T22:06:19.687Z,78.90
2019-02-17T22:08:48.915Z,79.93
2019-02-17T22:11:18.204Z,80.07
2019-02-17T22:13:48.018Z,82.93
2019-02-17T22:16:20.090Z,79.60
2019-02-17T22:18:48.922Z,84.57
2019-02-17T22:21:18.185Z,88.07
2019-02-17T22:23:48.214Z,90.17
2019-02-17T22:26:18.107Z,92.60
2019-02-17T22:28:48.234Z,93.33
2019-02-17T22:31:17.416Z,96.40
2019-02-17T22:33:46.985Z,106.60
2019-02-17T22:36:16.830Z,114.47
2019-02-17T22:38:46.731Z,123.27
2019-02-17T22:41:16.352Z,118.03
2019-02-17T22:43:46.432Z,122.43
2019-02-17T22:46:15.986Z,115.67
2019-02-17T22:48:45.555Z,112.37
2019-02-17T22:51:15.123Z,108.57
2019-02-17T22:53:44.783Z,108.27
2019-02-17T22:56:14.375Z,108.70
2019-02-17T22:58:43.822Z,108.30
2019-02-17T23:01:17.761Z,108.53
2019-02-17T23:03:46.999Z,110.10
2019-02-17T23:06:16.220Z,106.27
2019-02-17T23:08:46.406Z,99.53
2019-02-17T23:11:16.372Z,101.60
2019-02-17T23:13:46.176Z,101.27
2019-02-17T23:16:15.772Z,96.60
2019-02-17T23:18:44.904Z,92.63
2019-02-17T23:21:14.483Z,94.20
2019-02-17T23:23:44.342Z,94.87
2019-02-17T23:26:13.808Z,94.17
2019-02-17T23:28:43.522Z,92.40
2019-02-17T23:31:13.294Z,93.03
2019-02-17T23:33:43.259Z,91.03
2019-02-17T23:36:15.329Z,92.27
2019-02-17T23:38:45.160Z,92.23
2019-02-17T23:41:14.747Z,91.33
2019-02-17T23:43:45.004Z,90.20
2019-02-17T23:46:14.491Z,92.63
2019-02-17T23:48:44.655Z,91.43
2019-02-17T23:51:13.873Z,89.67
2019-02-17T23:53:42.987Z,88.97
2019-02-17T23:56:12.490Z,85.83
2019-02-17T23:58:42.275Z,88.43
